Time;durP1;ratioP1;P1;durP2;ratioP2;P2;SDS_P1;SDS_P2;PMS_P1;PMS_P2;Temp;Humidity;BMP_temperature;BMP_pressure;BME280_temperature;BME280_humidity;BME280_pressure;Samples;Min_cycle;Max_cycle;Signal;HPM_P1;HPM_P2
2022/11/02 00:00:39;;;;;;;17.48;2.13;;;;;;;10.67;100.00;101222.94;5002863;28;20077;-80
2022/11/02 00:03:04;;;;;;;25.27;2.13;;;;;;;10.35;100.00;101212.22;5016214;28;20464;-80
2022/11/02 00:05:30;;;;;;;16.80;1.85;;;;;;;10.00;100.00;101223.16;5001927;28;20068;-80
2022/11/02 00:07:55;;;;;;;9.93;2.05;;;;;;;9.77;100.00;101206.03;5016764;28;20049;-80
2022/11/02 00:10:22;;;;;;;12.63;1.27;;;;;;;9.66;100.00;101210.75;5021580;28;20022;-81
2022/11/02 00:12:48;;;;;;;15.38;1.77;;;;;;;9.61;100.00;101241.81;5015279;28;20484;-80
2022/11/02 00:15:15;;;;;;;15.13;1.58;;;;;;;9.55;100.00;101234.41;5017102;28;20026;-80
2022/11/02 00:17:44;;;;;;;10.95;1.77;;;;;;;9.41;100.00;101220.63;5017820;28;20026;-80
2022/11/02 00:20:11;;;;;;;12.13;1.20;;;;;;;9.48;100.00;101202.00;5018153;28;20105;-80
2022/11/02 00:22:37;;;;;;;17.42;1.35;;;;;;;9.56;100.00;101175.16;5015503;28;20034;-80
2022/11/02 00:25:05;;;;;;;13.50;1.60;;;;;;;9.69;100.00;101153.16;5015532;28;20030;-82
2022/11/02 00:27:31;;;;;;;19.42;1.75;;;;;;;9.77;100.00;101155.81;5015006;28;20034;-80
2022/11/02 00:29:58;;;;;;;15.05;2.13;;;;;;;9.83;100.00;101181.19;5016167;28;20033;-80
2022/11/02 00:32:24;;;;;;;12.77;1.48;;;;;;;9.88;100.00;101170.78;5015119;28;20505;-80
2022/11/02 00:34:50;;;;;;;15.80;1.60;;;;;;;9.88;100.00;101173.47;5015828;28;20026;-80
2022/11/02 00:37:15;;;;;;;14.52;1.40;;;;;;;9.87;100.00;101161.88;5014164;28;20040;-80
2022/11/02 00:39:40;;;;;;;9.20;1.25;;;;;;;9.95;100.00;101152.94;5015400;28;20053;-79
2022/11/02 00:42:06;;;;;;;9.07;0.80;;;;;;;9.96;100.00;101153.78;5015301;28;20026;-79
2022/11/02 00:44:31;;;;;;;8.73;0.95;;;;;;;9.94;100.00;101150.44;5015529;28;20056;-81
2022/11/02 00:46:56;;;;;;;11.07;0.95;;;;;;;9.94;100.00;101139.69;5014949;28;20140;-79
2022/11/02 00:49:21;;;;;;;11.27;1.00;;;;;;;9.91;100.00;101146.22;5015501;28;20387;-81
2022/11/02 00:51:47;;;;;;;11.25;1.20;;;;;;;9.89;100.00;101140.19;5017016;28;20022;-80
2022/11/02 00:54:12;;;;;;;12.02;1.08;;;;;;;9.88;100.00;101139.34;5016800;28;20382;-82
2022/11/02 00:56:38;;;;;;;9.23;1.05;;;;;;;9.85;100.00;101155.81;5021765;28;20493;-80
2022/11/02 00:59:03;;;;;;;21.02;1.80;;;;;;;9.82;100.00;101137.34;5022888;28;20030;-85
2022/11/02 01:01:29;;;;;;;14.00;2.42;;;;;;;9.78;100.00;101141.38;5018242;28;20141;-80
2022/11/02 01:03:55;;;;;;;11.98;1.50;;;;;;;9.76;100.00;101145.22;5020962;28;20179;-81
2022/11/02 01:06:21;;;;;;;23.75;2.40;;;;;;;9.72;100.00;101147.44;5021261;28;20027;-84
2022/11/02 01:08:46;;;;;;;14.25;2.42;;;;;;;9.67;100.00;101155.16;5023395;28;20048;-83
2022/11/02 01:11:16;;;;;;;20.13;2.17;;;;;;;9.69;100.00;101174.66;5018069;28;20125;-84
2022/11/02 01:13:41;;;;;;;22.13;2.95;;;;;;;9.71;100.00;101153.78;5019825;28;20449;-83
2022/11/02 01:16:07;;;;;;;20.30;1.35;;;;;;;9.70;100.00;101148.59;5020421;28;20042;-83
2022/11/02 01:18:32;;;;;;;17.60;1.35;;;;;;;9.68;100.00;101146.91;5023813;28;20108;-84
2022/11/02 01:20:58;;;;;;;14.15;1.60;;;;;;;9.65;100.00;101152.63;5019903;28;20079;-85
2022/11/02 01:23:24;;;;;;;11.43;1.92;;;;;;;9.65;100.00;101163.38;5019076;28;20026;-81
2022/11/02 01:25:50;;;;;;;14.18;1.95;;;;;;;9.64;100.00;101150.13;5018005;28;20494;-83
2022/11/02 01:28:15;;;;;;;23.00;1.75;;;;;;;9.64;100.00;101144.75;5014326;28;20053;-82
2022/11/02 01:30:40;;;;;;;17.77;1.88;;;;;;;9.66;100.00;101143.56;5016646;28;20026;-82
2022/11/02 01:33:06;;;;;;;24.38;2.13;;;;;;;9.67;100.00;101150.63;5013631;28;20505;-81
2022/11/02 01:35:31;;;;;;;20.45;1.48;;;;;;;9.68;100.00;101159.50;5014158;28;20443;-81
2022/11/02 01:37:57;;;;;;;24.10;2.00;;;;;;;9.70;100.00;101173.63;5016795;28;20576;-82
2022/11/02 01:40:22;;;;;;;17.95;1.98;;;;;;;9.71;100.00;101159.16;5028206;28;20382;-83
2022/11/02 01:42:48;;;;;;;18.20;2.13;;;;;;;9.81;100.00;101141.03;5018985;28;20026;-83
2022/11/02 01:45:13;;;;;;;27.33;2.15;;;;;;;9.87;100.00;101135.00;5023994;28;20034;-84
2022/11/02 01:47:41;;;;;;;20.40;2.45;;;;;;;9.94;100.00;101134.28;5028864;28;20057;-80
2022/11/02 01:50:17;;;;;;;;;;;;;;;9.98;100.00;101143.69;5010489;28;20026;-84
2022/11/02 01:52:43;;;;;;;15.63;1.30;;;;;;;10.07;100.00;101153.44;5017800;28;20365;-79
2022/11/02 01:55:25;;;;;;;26.42;3.30;;;;;;;10.15;100.00;101148.03;5016516;28;20033;-81
2022/11/02 01:58:02;;;;;;;16.40;1.83;;;;;;;10.26;100.00;101150.34;5015938;28;20486;-83
2022/11/02 02:00:27;;;;;;;20.13;1.98;;;;;;;10.32;100.00;101151.53;5014269;28;20030;-84
2022/11/02 02:03:08;;;;;;;14.65;1.85;;;;;;;10.39;100.00;101173.22;5013995;28;20037;-83
2022/11/02 02:05:40;;;;;;;19.40;1.67;;;;;;;10.47;100.00;101157.88;5015755;28;20071;-84
2022/11/02 02:08:07;;;;;;;16.38;2.83;;;;;;;10.50;100.00;101151.31;5008181;28;20054;-83
2022/11/02 02:13:07;;;;;;;18.45;1.98;;;;;;;10.48;100.00;101142.59;5203417;22;20057;-42
2022/11/02 02:15:47;;;;;;;10.82;1.33;;;;;;;10.46;100.00;101147.31;5027304;28;20026;-44
2022/11/02 02:18:22;;;;;;;12.77;1.50;;;;;;;10.45;100.00;101148.31;5023626;28;20356;-43
2022/11/02 02:21:09;;;;;;;12.15;2.25;;;;;;;10.45;100.00;101149.16;5026985;28;20121;-43
2022/11/02 02:24:09;;;;;;;12.23;2.28;;;;;;;10.49;100.00;101150.47;5029509;28;20025;-43
2022/11/02 02:26:59;;;;;;;15.82;1.75;;;;;;;10.51;100.00;101164.59;5027102;28;20108;-43
2022/11/02 02:29:47;;;;;;;15.02;1.95;;;;;;;10.51;100.00;101166.47;5013564;28;20045;-43
2022/11/02 02:32:17;;;;;;;17.08;2.10;;;;;;;10.49;100.00;101155.03;5021002;28;20068;-43
2022/11/02 02:34:52;;;;;;;19.20;1.95;;;;;;;10.45;100.00;101169.81;5031115;28;20056;-46
2022/11/02 02:37:26;;;;;;;21.65;1.67;;;;;;;10.37;100.00;101161.78;5031060;28;20463;-47
2022/11/02 02:40:33;;;;;;;20.58;2.25;;;;;;;10.39;100.00;101159.78;5010716;28;20045;-45
2022/11/02 02:43:16;;;;;;;21.15;2.40;;;;;;;10.41;100.00;101163.97;5030177;28;20034;-45
2022/11/02 02:45:49;;;;;;;9.30;2.10;;;;;;;10.44;100.00;101155.53;5029815;28;20106;-44
2022/11/02 02:48:19;;;;;;;15.32;2.47;;;;;;;10.43;100.00;101163.81;5027082;28;20064;-43
2022/11/02 02:50:59;;;;;;;11.65;1.73;;;;;;;10.41;100.00;101152.38;5008915;28;20026;-43
2022/11/02 02:53:33;;;;;;;15.30;2.47;;;;;;;10.42;100.00;101151.34;5009790;28;20060;-43
2022/11/02 02:55:59;;;;;;;19.30;1.90;;;;;;;10.41;100.00;101147.00;5012315;28;20029;-43
2022/11/02 02:58:28;;;;;;;12.93;1.95;;;;;;;10.37;100.00;101156.41;5020427;28;20144;-43
2022/11/02 03:00:54;;;;;;;15.13;1.77;;;;;;;10.35;100.00;101166.50;5019335;28;20088;-43
2022/11/02 03:03:22;;;;;;;15.93;2.17;;;;;;;10.33;100.00;101193.59;5029873;28;20026;-43
2022/11/02 03:05:58;;;;;;;20.13;2.13;;;;;;;10.36;100.00;101163.66;5026902;28;20041;-42
2022/11/02 03:08:24;;;;;;;18.98;2.63;;;;;;;10.33;100.00;101189.03;5026667;28;20029;-43
2022/11/02 03:11:02;;;;;;;23.63;2.22;;;;;;;10.33;100.00;101186.34;5013018;28;20163;-43
2022/11/02 03:13:39;;;;;;;20.15;2.88;;;;;;;10.32;100.00;101192.75;5019066;28;20445;-42
2022/11/02 03:16:31;;;;;;;26.27;2.35;;;;;;;10.33;100.00;101188.22;5030218;28;20030;-42
2022/11/02 03:19:21;;;;;;;24.75;2.50;;;;;;;10.35;100.00;101179.94;5025389;28;20042;-43
2022/11/02 03:21:52;;;;;;;20.05;2.95;;;;;;;10.36;100.00;101187.03;5026859;28;20540;-41
2022/11/02 03:24:26;;;;;;;24.75;3.25;;;;;;;10.42;100.00;101199.78;5027923;28;20132;-43
2022/11/02 03:26:57;;;;;;;29.95;3.92;;;;;;;10.47;100.00;101210.88;5029983;28;20036;-43
2022/11/02 03:29:27;;;;;;;22.10;2.40;;;;;;;10.49;100.00;101216.94;5029559;28;20079;-43
2022/11/02 03:31:56;;;;;;;19.90;2.92;;;;;;;10.54;100.00;101204.63;5028099;28;20055;-43
2022/11/02 03:34:27;;;;;;;21.48;2.58;;;;;;;10.67;100.00;101206.78;5029962;28;20422;-43
2022/11/02 03:36:53;;;;;;;26.77;3.50;;;;;;;10.74;100.00;101217.66;5028526;28;20041;-42
2022/11/02 03:39:22;;;;;;;23.55;3.00;;;;;;;10.74;100.00;101223.91;5027955;28;20030;-43
2022/11/02 03:41:49;;;;;;;30.42;2.92;;;;;;;10.76;100.00;101226.41;5029548;28;20037;-43
2022/11/02 03:44:18;;;;;;;21.75;2.88;;;;;;;10.77;100.00;101228.13;5028407;28;20052;-43
2022/11/02 03:46:44;;;;;;;33.75;4.68;;;;;;;10.77;100.00;101253.19;5028830;28;20029;-44
2022/11/02 03:49:14;;;;;;;34.65;3.42;;;;;;;10.74;100.00;101252.66;5029103;28;20112;-45
2022/11/02 03:51:41;;;;;;;27.45;2.85;;;;;;;10.68;100.00;101251.50;5028462;28;20041;-47
2022/11/02 03:54:12;;;;;;;32.97;3.53;;;;;;;10.63;100.00;101253.88;5029281;28;20505;-47
2022/11/02 03:56:43;;;;;;;32.95;2.95;;;;;;;10.60;100.00;101251.53;5028169;28;20479;-46
2022/11/02 03:59:09;;;;;;;23.95;2.92;;;;;;;10.57;100.00;101259.97;5027924;28;20037;-46
2022/11/02 04:01:42;;;;;;;26.42;3.08;;;;;;;10.55;100.00;101270.06;5029203;28;20399;-44
2022/11/02 04:04:08;;;;;;;36.10;3.28;;;;;;;10.59;100.00;101284.84;5032200;28;20033;-44
2022/11/02 04:06:35;;;;;;;27.55;2.85;;;;;;;10.61;100.00;101296.31;5032527;28;20211;-44
2022/11/02 04:09:01;;;;;;;33.95;2.97;;;;;;;10.60;100.00;101305.38;5033114;28;20175;-46
2022/11/02 04:19:40;;;;;;;20.35;1.95;;;;;;;10.36;100.00;101305.41;5032605;28;20121;-44
2022/11/02 04:27:35;;;;;;;17.88;2.33;;;;;;;10.38;100.00;101327.59;5022132;28;20068;-42
2022/11/02 04:30:00;;;;;;;28.70;2.30;;;;;;;10.47;100.00;101326.59;5026546;28;20022;-42
2022/11/02 04:35:09;;;;;;;24.27;3.03;;;;;;;10.50;100.00;101339.69;5032388;28;20044;-42
2022/11/02 04:40:21;;;;;;;19.60;1.92;;;;;;;10.65;100.00;101359.53;5032758;28;20048;-42
2022/11/02 04:42:46;;;;;;;18.85;1.92;;;;;;;10.68;100.00;101348.41;5030943;28;20414;-43
2022/11/02 04:45:12;;;;;;;26.20;1.98;;;;;;;10.72;100.00;101351.63;5031166;28;20434;-43
2022/11/02 04:47:37;;;;;;;21.58;3.28;;;;;;;10.81;100.00;101363.22;5030854;28;20057;-42
2022/11/02 04:50:03;;;;;;;24.63;2.13;;;;;;;10.91;100.00;101353.09;5032300;28;20033;-42
2022/11/02 04:52:28;;;;;;;24.38;2.72;;;;;;;10.93;100.00;101360.00;5033423;28;20021;-43
2022/11/02 04:54:54;;;;;;;29.38;2.35;;;;;;;10.94;100.00;101366.22;5032863;28;20030;-43
2022/11/02 04:57:19;;;;;;;24.20;2.22;;;;;;;10.88;100.00;101370.44;5031624;28;20064;-43
2022/11/02 04:59:44;;;;;;;22.80;3.30;;;;;;;10.85;100.00;101376.19;5033289;28;20581;-42
2022/11/02 05:02:09;;;;;;;23.65;2.50;;;;;;;10.85;100.00;101386.09;5032709;28;20116;-43
2022/11/02 05:04:35;;;;;;;27.05;2.42;;;;;;;10.86;100.00;101412.03;5032259;28;20110;-43
2022/11/02 05:07:00;;;;;;;20.70;1.98;;;;;;;10.86;100.00;101414.72;5032552;28;20121;-43
2022/11/02 05:09:25;;;;;;;25.95;3.65;;;;;;;10.79;100.00;101413.69;5032375;28;20029;-43
2022/11/02 05:11:51;;;;;;;11.75;1.67;;;;;;;10.80;100.00;101415.41;5019377;28;20117;-43
2022/11/02 05:14:16;;;;;;;21.30;1.65;;;;;;;10.81;100.00;101422.47;5030529;28;20104;-43
2022/11/02 05:16:41;;;;;;;12.15;1.67;;;;;;;10.83;99.82;101423.97;5029813;28;20048;-42
2022/11/02 05:19:07;;;;;;;21.73;2.25;;;;;;;10.92;99.13;101424.78;5032912;28;20041;-43
2022/11/02 05:21:32;;;;;;;22.83;1.95;;;;;;;10.91;99.44;101428.50;5032413;28;20021;-44
2022/11/02 05:23:57;;;;;;;13.50;1.60;;;;;;;10.90;100.00;101437.59;5030563;28;20471;-43
2022/11/02 05:26:23;;;;;;;15.52;1.60;;;;;;;10.89;99.97;101430.53;5016494;28;20048;-44
2022/11/02 05:28:51;;;;;;;20.33;1.80;;;;;;;10.91;99.23;101450.06;5017509;28;20124;-44
2022/11/02 05:31:17;;;;;;;12.18;1.73;;;;;;;10.88;98.29;101445.84;5024436;28;20094;-44
2022/11/02 05:33:43;;;;;;;18.63;2.33;;;;;;;10.89;97.48;101452.91;5028148;28;20052;-44
2022/11/02 05:36:08;;;;;;;8.20;1.10;;;;;;;10.85;97.77;101429.16;5025905;28;20038;-44
2022/11/02 05:38:34;;;;;;;11.80;1.90;;;;;;;10.84;97.36;101462.50;5024630;28;20059;-43
2022/11/02 05:40:59;;;;;;;10.20;1.40;;;;;;;10.88;97.18;101467.41;5026202;28;20045;-42
2022/11/02 05:43:25;;;;;;;12.57;1.63;;;;;;;10.91;98.08;101477.81;5030693;28;20029;-42
2022/11/02 05:45:58;;;;;;;13.60;1.80;;;;;;;10.96;98.16;101482.72;5029305;28;20033;-43
2022/11/02 05:48:25;;;;;;;11.85;1.92;;;;;;;10.97;97.17;101479.00;5015223;28;20048;-44
2022/11/02 05:50:58;;;;;;;18.13;2.53;;;;;;;10.99;96.44;101490.44;5029899;28;20075;-44
2022/11/02 05:53:25;;;;;;;13.88;2.30;;;;;;;11.01;95.89;101493.81;5026549;28;20099;-43
2022/11/02 05:55:50;;;;;;;16.92;1.52;;;;;;;11.02;95.23;101492.81;5031961;28;20045;-43
2022/11/02 05:58:16;;;;;;;19.25;1.90;;;;;;;11.03;93.84;101504.41;5032050;28;20038;-43
2022/11/02 06:00:41;;;;;;;11.70;1.60;;;;;;;11.07;93.24;101508.47;5013592;28;20026;-43
2022/11/02 06:03:06;;;;;;;18.60;2.10;;;;;;;11.08;92.22;101518.22;5012287;28;20036;-43
2022/11/02 06:05:32;;;;;;;20.58;2.15;;;;;;;11.05;90.78;101514.00;5021956;28;20052;-43
2022/11/02 06:08:01;;;;;;;12.40;1.83;;;;;;;11.04;91.07;101515.03;5000270;28;20091;-44
2022/11/02 06:10:27;;;;;;;17.17;1.80;;;;;;;11.05;91.37;101522.09;5013588;28;20036;-44
2022/11/02 06:13:01;;;;;;;14.27;1.65;;;;;;;11.02;91.93;101533.22;5024840;28;20072;-44
2022/11/02 06:15:27;;;;;;;20.70;3.22;;;;;;;11.02;91.76;101543.97;5025629;28;20033;-44
2022/11/02 06:17:53;;;;;;;13.35;1.60;;;;;;;11.04;90.59;101563.50;5021193;28;20452;-43
2022/11/02 06:20:19;;;;;;;20.40;1.65;;;;;;;11.05;90.93;101556.28;5022891;28;20033;-43
2022/11/02 06:22:44;;;;;;;14.77;1.85;;;;;;;11.01;90.41;101563.03;5024137;28;20064;-44
2022/11/02 06:25:10;;;;;;;17.45;2.08;;;;;;;11.04;90.11;101560.81;5023971;28;20361;-43
2022/11/02 06:27:36;;;;;;;17.67;1.80;;;;;;;11.08;90.41;101564.00;5024767;28;20034;-43
2022/11/02 06:30:03;;;;;;;20.95;1.45;;;;;;;11.03;90.11;101569.06;5023952;28;20081;-43
2022/11/02 06:32:28;;;;;;;13.68;1.95;;;;;;;11.05;89.80;101573.28;5025052;28;20029;-43
2022/11/02 06:34:54;;;;;;;12.88;1.67;;;;;;;11.07;89.91;101591.97;5024157;28;20471;-43
2022/11/02 06:37:21;;;;;;;16.80;1.80;;;;;;;11.09;89.97;101609.66;5025069;28;20155;-43
2022/11/02 06:39:46;;;;;;;18.48;2.00;;;;;;;11.11;88.93;101599.56;5023441;28;20199;-45
2022/11/02 06:42:12;;;;;;;14.73;1.92;;;;;;;11.15;89.76;101597.38;5023668;28;20549;-44
2022/11/02 06:44:37;;;;;;;16.73;1.50;;;;;;;11.15;90.36;101608.13;5024189;28;20545;-45
2022/11/02 06:47:02;;;;;;;24.20;2.10;;;;;;;11.11;90.58;101618.41;5021475;28;20025;-44
2022/11/02 06:49:28;;;;;;;26.45;2.92;;;;;;;11.09;89.66;101625.81;5010041;28;20040;-43
2022/11/02 06:51:54;;;;;;;8.73;1.40;;;;;;;11.10;89.96;101638.25;5007347;28;20103;-45
2022/11/02 06:54:19;;;;;;;10.13;1.42;;;;;;;11.09;90.60;101639.28;5014489;28;20033;-45
2022/11/02 06:56:45;;;;;;;13.38;1.33;;;;;;;11.11;89.38;101637.28;5023375;28;20424;-44
2022/11/02 06:59:10;;;;;;;12.65;1.55;;;;;;;11.15;89.32;101651.25;5022661;28;20444;-45
2022/11/02 07:01:35;;;;;;;19.38;1.85;;;;;;;11.15;88.88;101662.03;5022986;28;20517;-45
2022/11/02 07:04:01;;;;;;;20.08;2.15;;;;;;;11.15;87.43;101660.16;5022523;28;20029;-45
2022/11/02 07:06:27;;;;;;;10.40;1.45;;;;;;;11.11;85.22;101661.53;5016393;28;20104;-45
2022/11/02 07:08:53;;;;;;;19.42;1.88;;;;;;;11.09;84.80;101666.22;5011919;28;20097;-43
2022/11/02 07:11:18;;;;;;;8.38;1.52;;;;;;;11.11;83.85;101674.13;5022319;28;20044;-44
2022/11/02 07:13:44;;;;;;;13.27;1.65;;;;;;;11.12;85.26;101673.97;5021092;28;20463;-44
2022/11/02 07:16:09;;;;;;;17.45;2.03;;;;;;;11.08;85.99;101671.75;5023909;28;20113;-43
2022/11/02 07:18:35;;;;;;;14.73;2.55;;;;;;;11.09;86.65;101671.63;5021531;28;20129;-44
2022/11/02 07:21:01;;;;;;;13.93;2.22;;;;;;;11.05;86.43;101677.50;5022579;28;20025;-44
2022/11/02 07:23:26;;;;;;;26.40;1.95;;;;;;;11.06;85.86;101680.03;5023644;28;20429;-44
2022/11/02 07:25:52;;;;;;;19.15;2.30;;;;;;;11.08;85.22;101686.06;5022238;28;20045;-43
2022/11/02 07:28:17;;;;;;;19.23;2.38;;;;;;;11.11;84.65;101688.47;5024244;28;20391;-42
2022/11/02 07:30:43;;;;;;;13.40;1.92;;;;;;;11.08;86.05;101699.53;5022424;28;20078;-43
2022/11/02 07:33:08;;;;;;;15.65;2.63;;;;;;;11.02;86.40;101710.97;5023764;28;20060;-43
2022/11/02 07:35:34;;;;;;;14.82;2.25;;;;;;;11.03;86.13;101709.97;5023678;28;20459;-44
2022/11/02 07:38:01;;;;;;;25.40;1.63;;;;;;;11.12;86.06;101698.22;5026282;28;20096;-43
2022/11/02 07:40:27;;;;;;;16.65;2.22;;;;;;;11.26;84.97;101714.75;5028223;28;20048;-43
2022/11/02 07:42:53;;;;;;;17.40;1.50;;;;;;;11.30;84.14;101718.81;5027795;28;20037;-43
2022/11/02 07:45:20;;;;;;;14.15;1.65;;;;;;;11.35;82.66;101721.88;5028756;28;20535;-42
2022/11/02 07:47:46;;;;;;;17.15;2.55;;;;;;;11.73;83.46;101725.75;5026018;28;20828;-43
2022/11/02 07:50:13;;;;;;;12.27;1.67;;;;;;;12.56;80.43;101722.00;5026733;28;20029;-45
2022/11/02 07:52:49;;;;;;;12.75;1.67;;;;;;;13.11;76.01;101726.50;5035995;28;20459;-42
2022/11/02 07:55:16;;;;;;;10.07;1.52;;;;;;;13.75;74.53;101730.84;5028228;28;20041;-43
2022/11/02 07:57:42;;;;;;;12.32;1.70;;;;;;;14.30;71.80;101723.38;5025810;28;20029;-43
2022/11/02 08:00:11;;;;;;;15.93;1.70;;;;;;;14.85;69.84;101730.25;5028324;28;20018;-43
2022/11/02 08:02:37;;;;;;;11.73;1.70;;;;;;;14.95;67.97;101744.34;5027456;28;20033;-43
2022/11/02 08:05:03;;;;;;;12.13;1.80;;;;;;;14.95;68.16;101736.22;5028129;28;20050;-42
2022/11/02 08:07:29;;;;;;;13.50;1.77;;;;;;;15.49;66.18;101749.38;5027865;28;20089;-43
2022/11/02 08:09:54;;;;;;;25.63;2.60;;;;;;;16.04;63.83;101751.63;5028061;28;20018;-43
2022/11/02 08:12:19;;;;;;;13.23;2.00;;;;;;;16.57;62.59;101752.00;5027695;28;20098;-43
2022/11/02 08:14:45;;;;;;;12.38;1.63;;;;;;;16.44;61.40;101758.19;5027396;28;20456;-43
2022/11/02 08:17:10;;;;;;;8.82;1.63;;;;;;;16.72;58.83;101757.31;5018746;28;20034;-43
2022/11/02 08:19:35;;;;;;;14.15;1.88;;;;;;;16.93;57.17;101759.13;5020061;28;20425;-42
2022/11/02 08:22:01;;;;;;;9.50;1.83;;;;;;;17.39;55.93;101755.75;5027074;28;20290;-44
2022/11/02 08:24:26;;;;;;;12.65;1.90;;;;;;;17.34;53.46;101762.66;5026821;28;20471;-44
2022/11/02 08:26:51;;;;;;;11.57;1.90;;;;;;;17.29;55.51;101765.13;5028067;28;20112;-44
2022/11/02 08:29:17;;;;;;;12.13;1.88;;;;;;;17.18;54.87;101771.16;5028155;28;20458;-44
2022/11/02 08:31:42;;;;;;;11.27;1.83;;;;;;;17.07;54.89;101775.31;5028156;28;20039;-45
2022/11/02 08:34:10;;;;;;;12.50;1.88;;;;;;;16.87;55.16;101766.22;5027396;28;20526;-44
2022/11/02 08:36:36;;;;;;;6.80;1.50;;;;;;;17.08;56.63;101773.44;5027179;28;20033;-44
2022/11/02 08:39:01;;;;;;;12.68;1.95;;;;;;;16.64;55.75;101782.75;5027519;28;20048;-43
2022/11/02 08:41:26;;;;;;;16.00;2.20;;;;;;;16.74;56.49;101782.41;5026817;28;20562;-44
2022/11/02 08:43:52;;;;;;;8.85;1.58;;;;;;;17.34;56.73;101776.25;5021975;28;20069;-43
2022/11/02 08:46:17;;;;;;;9.82;2.10;;;;;;;17.34;55.41;101784.41;5026075;28;20136;-44
2022/11/02 08:48:43;;;;;;;10.50;1.50;;;;;;;17.57;55.33;101791.41;5018108;28;21171;-45
2022/11/02 08:51:08;;;;;;;15.82;2.03;;;;;;;17.10;54.73;101784.94;5015313;28;20025;-44
2022/11/02 08:53:34;;;;;;;14.88;2.13;;;;;;;16.99;54.57;101791.81;5025069;28;20035;-43
2022/11/02 08:55:59;;;;;;;13.13;1.60;;;;;;;16.78;55.38;101792.72;5025501;28;20417;-44
2022/11/02 08:58:25;;;;;;;12.23;1.70;;;;;;;16.60;55.76;101789.66;5020601;28;20893;-44
2022/11/02 09:00:52;;;;;;;17.98;2.28;;;;;;;16.35;55.36;101809.13;5010887;28;20464;-44
2022/11/02 09:03:18;;;;;;;11.02;2.03;;;;;;;16.16;56.93;101796.19;5025632;28;20037;-44
2022/11/02 09:05:45;;;;;;;12.38;1.75;;;;;;;16.06;56.68;101809.25;5024724;28;20139;-42
2022/11/02 09:08:13;;;;;;;10.13;2.00;;;;;;;15.70;55.95;101816.44;5025131;28;20041;-43
2022/11/02 09:10:38;;;;;;;;;;;;;;;15.25;56.26;101820.25;5025745;28;20029;-43
2022/11/02 09:13:05;;;;;;;12.87;1.63;;;;;;;15.27;57.63;101815.47;5024378;28;20338;-44
2022/11/02 09:15:34;;;;;;;16.60;1.65;;;;;;;15.11;59.39;101817.38;5026840;28;20268;-44
2022/11/02 09:18:00;;;;;;;9.35;1.55;;;;;;;15.05;59.35;101815.38;5026484;28;20021;-44
2022/11/02 09:20:25;;;;;;;15.73;2.15;;;;;;;15.06;60.77;101811.66;5026790;28;20491;-43
2022/11/02 09:22:50;;;;;;;12.18;1.65;;;;;;;15.05;61.00;101818.09;5026803;28;20038;-43
2022/11/02 09:25:16;;;;;;;14.07;1.52;;;;;;;15.25;61.31;101812.97;5024114;28;20140;-43
2022/11/02 09:27:42;;;;;;;13.20;2.47;;;;;;;15.15;61.38;101823.25;5025220;28;20076;-44
2022/11/02 09:30:08;;;;;;;16.33;2.08;;;;;;;15.03;60.24;101814.72;5040140;28;20030;-43
2022/11/02 09:32:33;;;;;;;10.13;1.65;;;;;;;14.98;60.62;101828.03;5023510;28;20026;-44
2022/11/02 09:35:00;;;;;;;13.65;2.03;;;;;;;15.14;62.20;101835.97;5024520;28;20254;-43
2022/11/02 09:37:27;;;;;;;9.30;2.20;;;;;;;14.92;61.69;101839.59;5024386;28;20037;-44
2022/11/02 09:39:52;;;;;;;19.00;2.42;;;;;;;14.84;63.53;101831.56;5007594;28;20041;-43
2022/11/02 09:42:40;;;;;;;14.70;1.83;;;;;;;14.68;61.44;101830.69;5025197;28;20325;-43
2022/11/02 09:45:14;;;;;;;12.73;1.58;;;;;;;14.88;61.76;101838.31;5025697;28;20087;-44
2022/11/02 09:48:02;;;;;;;12.63;2.38;;;;;;;14.94;60.86;101840.25;5024225;28;20394;-42
2022/11/02 09:50:44;;;;;;;10.65;1.67;;;;;;;15.38;61.40;101839.41;5022669;28;20234;-44
2022/11/02 09:53:13;;;;;;;9.88;1.50;;;;;;;15.55;59.65;101835.44;5010934;28;20056;-42
2022/11/02 09:55:43;;;;;;;13.30;1.83;;;;;;;15.20;59.62;101844.38;5021784;28;20025;-44
2022/11/02 09:58:17;;;;;;;12.45;2.15;;;;;;;15.18;61.96;101835.59;5022699;28;20029;-44
2022/11/02 10:00:45;;;;;;;7.88;1.67;;;;;;;15.19;62.79;101839.97;5024741;28;20720;-44
2022/11/02 10:03:24;;;;;;;14.25;2.22;;;;;;;15.02;63.50;101837.47;5022683;28;20036;-44
2022/11/02 10:06:06;;;;;;;13.68;1.90;;;;;;;14.93;65.24;101831.31;5007542;28;20037;-44
2022/11/02 10:09:08;;;;;;;26.05;2.33;;;;;;;14.78;65.05;101833.16;5024143;28;20095;-44
2022/11/02 10:11:55;;;;;;;21.25;2.85;;;;;;;14.86;64.80;101841.19;5002902;28;20037;-43
2022/11/02 10:14:24;;;;;;;10.73;1.20;;;;;;;14.91;63.67;101837.94;5024726;28;20363;-44
2022/11/02 10:17:24;;;;;;;14.18;1.80;;;;;;;15.44;63.13;101849.50;5022925;28;20344;-43
2022/11/02 10:19:55;;;;;;;15.45;2.15;;;;;;;15.65;59.96;101847.88;5018648;28;20045;-45
2022/11/02 10:22:24;;;;;;;25.55;2.78;;;;;;;15.76;60.24;101858.25;5023701;28;20096;-43
2022/11/02 10:24:50;;;;;;;17.35;1.73;;;;;;;15.53;59.95;101869.22;5023097;28;20063;-44
2022/11/02 10:27:27;;;;;;;15.05;1.80;;;;;;;15.12;60.62;101867.00;5022547;28;20056;-44
2022/11/02 10:30:10;;;;;;;8.73;1.37;;;;;;;15.17;61.24;101877.31;5025279;28;20096;-44
2022/11/02 10:32:37;;;;;;;12.52;1.58;;;;;;;14.98;61.76;101876.84;5024090;28;20299;-45
2022/11/02 10:35:06;;;;;;;17.60;2.05;;;;;;;15.00;61.40;101872.03;5024572;28;20044;-43
2022/11/02 10:37:55;;;;;;;17.27;2.15;;;;;;;15.39;61.49;101872.78;5024538;28;20029;-45
2022/11/02 10:40:43;;;;;;;14.15;1.83;;;;;;;16.09;62.16;101871.31;5024793;28;20378;-45
2022/11/02 10:43:27;;;;;;;9.70;1.63;;;;;;;16.57;58.81;101868.88;5022679;28;20036;-45
2022/11/02 10:46:12;;;;;;;14.23;1.85;;;;;;;15.85;57.35;101867.97;5024157;28;20072;-44
2022/11/02 10:49:02;;;;;;;14.93;2.13;;;;;;;15.40;59.76;101875.31;5022893;28;20554;-44
2022/11/02 10:51:28;;;;;;;13.52;1.48;;;;;;;15.58;58.88;101872.19;5024613;28;20039;-44
2022/11/02 10:53:54;;;;;;;15.70;1.60;;;;;;;16.05;58.56;101862.75;5024049;28;20029;-44
2022/11/02 10:56:24;;;;;;;13.82;1.75;;;;;;;16.41;57.88;101849.09;5023673;28;20037;-44
2022/11/02 10:58:59;;;;;;;13.60;1.63;;;;;;;15.90;57.34;101870.94;5023940;28;20045;-44
2022/11/02 11:01:25;;;;;;;16.77;1.95;;;;;;;15.54;58.27;101874.47;5025897;28;20025;-44
2022/11/02 11:04:05;;;;;;;9.25;1.63;;;;;;;15.00;60.34;101857.66;5026133;28;20340;-44
2022/11/02 11:06:40;;;;;;;15.20;1.90;;;;;;;14.82;62.38;101858.00;5024681;28;20034;-44
2022/11/02 11:09:14;;;;;;;15.75;2.10;;;;;;;14.64;67.34;101853.78;5022472;28;20068;-42
2022/11/02 11:11:40;;;;;;;12.65;1.83;;;;;;;14.85;69.30;101854.91;5022307;28;20088;-43
2022/11/02 11:14:17;;;;;;;14.20;1.92;;;;;;;14.95;67.87;101855.50;5022556;28;20705;-43
2022/11/02 11:16:45;;;;;;;11.00;2.00;;;;;;;15.11;67.12;101855.34;5022506;28;20034;-43
2022/11/02 11:19:20;;;;;;;17.15;1.85;;;;;;;15.34;65.41;101862.50;5023231;28;20299;-43
2022/11/02 11:21:48;;;;;;;13.05;1.75;;;;;;;15.42;65.35;101867.81;5006177;28;20034;-44
2022/11/02 11:24:21;;;;;;;15.70;2.75;;;;;;;15.68;64.47;101871.91;5023468;28;20522;-44
2022/11/02 11:27:01;;;;;;;22.10;2.03;;;;;;;15.58;63.26;101874.91;5024191;28;20037;-43
2022/11/02 11:29:30;;;;;;;16.75;2.13;;;;;;;15.48;63.76;101871.66;5022310;28;20035;-44
2022/11/02 11:31:56;;;;;;;17.70;2.35;;;;;;;15.44;64.73;101873.06;5024237;28;20395;-44
2022/11/02 11:34:25;;;;;;;21.80;2.33;;;;;;;15.49;64.95;101873.34;5025114;28;20025;-43
2022/11/02 11:36:51;;;;;;;15.98;2.80;;;;;;;15.63;65.75;101852.63;5024488;28;20406;-43
2022/11/02 11:39:25;;;;;;;17.48;2.20;;;;;;;15.48;67.04;101867.09;5023696;28;20037;-42
2022/11/02 11:41:51;;;;;;;16.80;2.15;;;;;;;15.52;67.63;101868.38;5024289;28;20044;-44
2022/11/02 11:44:16;;;;;;;21.27;2.65;;;;;;;15.53;68.07;101870.06;5023972;28;20038;-44
2022/11/02 11:46:48;;;;;;;18.73;2.63;;;;;;;15.67;66.18;101862.09;5023761;28;20048;-43